Terminal Aerodrome Forecast
Issued by NWS Northern Indiana

Home | Current Version | Previous Version | Graphics & Text | Print | Product List | Glossary On
Versions: 1 2 3 4 5 6 7 8 9 10 11 12 13 14 15 16 17 18 19 20 21
457
FTUS43 KIWX 190521
TAFFWA
TAF
KFWA 190521Z 1906/2006 08010KT 6SM -RA SCT008 OVC025
     FM190900 12007KT P6SM -RA OVC008
     FM191500 20008KT 5SM -RA OVC012
     FM191800 23009KT 6SM SHRA VCTS OVC020CB
     FM192100 26009KT P6SM VCTS SCT025 BKN035CB
     FM200000 29006KT P6SM SCT035 BKN070=

USA.gov is the U.S. government's official web portal to all federal, state and local government web resources and services.